sensor_id;sensor_type;location;lat;lon;timestamp;temperature;humidity
59469;DHT22;45277;52.768;18.262;2022-08-21T00:00:18;20.40;99.90
59469;DHT22;45277;52.768;18.262;2022-08-21T00:02:19;20.40;99.90
59469;DHT22;45277;52.768;18.262;2022-08-21T00:03:53;20.40;99.90
59469;DHT22;45277;52.768;18.262;2022-08-21T00:05:25;20.40;99.90
59469;DHT22;45277;52.768;18.262;2022-08-21T00:07:05;20.50;99.90
59469;DHT22;45277;52.768;18.262;2022-08-21T00:08:37;20.50;99.90
59469;DHT22;45277;52.768;18.262;2022-08-21T00:10:09;20.50;99.90
59469;DHT22;45277;52.768;18.262;2022-08-21T00:11:41;20.60;99.90
59469;DHT22;45277;52.768;18.262;2022-08-21T00:13:13;20.60;99.90
59469;DHT22;45277;52.768;18.262;2022-08-21T00:14:47;20.60;99.90
59469;DHT22;45277;52.768;18.262;2022-08-21T00:16:19;20.50;99.90
59469;DHT22;45277;52.768;18.262;2022-08-21T00:18:05;20.50;99.90
59469;DHT22;45277;52.768;18.262;2022-08-21T00:19:43;20.50;99.90
59469;DHT22;45277;52.768;18.262;2022-08-21T00:21:16;20.60;99.90
59469;DHT22;45277;52.768;18.262;2022-08-21T00:22:55;20.60;99.90
59469;DHT22;45277;52.768;18.262;2022-08-21T00:24:27;20.50;99.90
59469;DHT22;45277;52.768;18.262;2022-08-21T00:25:58;20.50;99.90
59469;DHT22;45277;52.768;18.262;2022-08-21T00:27:32;20.50;99.90
59469;DHT22;45277;52.768;18.262;2022-08-21T00:29:03;20.40;99.90
59469;DHT22;45277;52.768;18.262;2022-08-21T00:30:38;20.30;99.90
59469;DHT22;45277;52.768;18.262;2022-08-21T00:32:19;20.40;99.90
59469;DHT22;45277;52.768;18.262;2022-08-21T00:33:51;20.40;99.90
59469;DHT22;45277;52.768;18.262;2022-08-21T00:35:30;20.30;99.90
59469;DHT22;45277;52.768;18.262;2022-08-21T00:37:03;20.20;99.90
59469;DHT22;45277;52.768;18.262;2022-08-21T00:38:41;20.20;99.90
59469;DHT22;45277;52.768;18.262;2022-08-21T00:40:17;20.10;99.90
59469;DHT22;45277;52.768;18.262;2022-08-21T00:41:49;20.00;99.90
59469;DHT22;45277;52.768;18.262;2022-08-21T00:43:31;20.00;99.90
59469;DHT22;45277;52.768;18.262;2022-08-21T00:45:05;20.00;99.90
59469;DHT22;45277;52.768;18.262;2022-08-21T00:46:40;20.00;99.90
59469;DHT22;45277;52.768;18.262;2022-08-21T00:48:25;20.00;99.90
59469;DHT22;45277;52.768;18.262;2022-08-21T00:50:07;20.20;99.90
59469;DHT22;45277;52.768;18.262;2022-08-21T00:51:46;20.30;99.90
59469;DHT22;45277;52.768;18.262;2022-08-21T00:53:19;20.20;99.90
59469;DHT22;45277;52.768;18.262;2022-08-21T00:54:58;20.30;99.90
59469;DHT22;45277;52.768;18.262;2022-08-21T00:56:30;20.20;99.90
59469;DHT22;45277;52.768;18.262;2022-08-21T00:58:04;20.30;99.90
59469;DHT22;45277;52.768;18.262;2022-08-21T00:59:38;20.30;99.90
59469;DHT22;45277;52.768;18.262;2022-08-21T01:01:10;20.30;99.90
59469;DHT22;45277;52.768;18.262;2022-08-21T01:02:41;20.30;99.90
59469;DHT22;45277;52.768;18.262;2022-08-21T01:04:15;20.30;99.90
59469;DHT22;45277;52.768;18.262;2022-08-21T01:05:47;20.30;99.90
59469;DHT22;45277;52.768;18.262;2022-08-21T01:07:19;20.30;99.90
59469;DHT22;45277;52.768;18.262;2022-08-21T01:08:51;20.30;99.90
59469;DHT22;45277;52.768;18.262;2022-08-21T01:10:23;20.30;99.90
59469;DHT22;45277;52.768;18.262;2022-08-21T01:11:57;20.30;99.90
59469;DHT22;45277;52.768;18.262;2022-08-21T01:13:30;20.40;99.90
59469;DHT22;45277;52.768;18.262;2022-08-21T01:15:05;20.30;99.90
59469;DHT22;45277;52.768;18.262;2022-08-21T01:16:42;20.30;99.90
59469;DHT22;45277;52.768;18.262;2022-08-21T01:18:23;20.40;99.90
59469;DHT22;45277;52.768;18.262;2022-08-21T01:20:00;20.30;99.90
59469;DHT22;45277;52.768;18.262;2022-08-21T01:21:33;20.30;99.90
59469;DHT22;45277;52.768;18.262;2022-08-21T01:23:06;20.30;99.90
59469;DHT22;45277;52.768;18.262;2022-08-21T01:24:37;20.30;99.90
59469;DHT22;45277;52.768;18.262;2022-08-21T01:26:10;20.30;99.90
59469;DHT22;45277;52.768;18.262;2022-08-21T01:27:43;20.30;99.90
59469;DHT22;45277;52.768;18.262;2022-08-21T01:29:34;20.20;99.90
59469;DHT22;45277;52.768;18.262;2022-08-21T01:31:08;20.20;99.90
59469;DHT22;45277;52.768;18.262;2022-08-21T01:32:43;20.30;99.90
59469;DHT22;45277;52.768;18.262;2022-08-21T01:34:14;20.30;99.90
59469;DHT22;45277;52.768;18.262;2022-08-21T01:35:47;20.30;99.90
59469;DHT22;45277;52.768;18.262;2022-08-21T01:37:21;20.30;99.90
59469;DHT22;45277;52.768;18.262;2022-08-21T01:38:53;20.30;99.90
59469;DHT22;45277;52.768;18.262;2022-08-21T01:40:31;20.40;99.90
59469;DHT22;45277;52.768;18.262;2022-08-21T01:42:05;20.40;99.90
59469;DHT22;45277;52.768;18.262;2022-08-21T01:43:39;20.40;99.90
59469;DHT22;45277;52.768;18.262;2022-08-21T01:45:17;20.40;99.90
59469;DHT22;45277;52.768;18.262;2022-08-21T01:46:50;20.40;99.90
59469;DHT22;45277;52.768;18.262;2022-08-21T01:48:22;20.40;99.90
59469;DHT22;45277;52.768;18.262;2022-08-21T01:49:55;20.40;99.90
59469;DHT22;45277;52.768;18.262;2022-08-21T01:51:27;20.30;99.90
59469;DHT22;45277;52.768;18.262;2022-08-21T01:52:59;20.30;99.90
59469;DHT22;45277;52.768;18.262;2022-08-21T01:54:32;20.20;99.90
59469;DHT22;45277;52.768;18.262;2022-08-21T01:56:06;20.20;99.90
59469;DHT22;45277;52.768;18.262;2022-08-21T01:57:39;20.20;99.90
59469;DHT22;45277;52.768;18.262;2022-08-21T01:59:12;20.20;99.90
59469;DHT22;45277;52.768;18.262;2022-08-21T02:00:45;20.20;99.90
59469;DHT22;45277;52.768;18.262;2022-08-21T02:02:18;20.30;99.90
59469;DHT22;45277;52.768;18.262;2022-08-21T02:03:50;20.30;99.90
59469;DHT22;45277;52.768;18.262;2022-08-21T02:05:29;20.20;99.90
59469;DHT22;45277;52.768;18.262;2022-08-21T02:07:07;20.30;99.90
59469;DHT22;45277;52.768;18.262;2022-08-21T02:08:38;20.30;99.90
59469;DHT22;45277;52.768;18.262;2022-08-21T02:10:12;20.30;99.90
59469;DHT22;45277;52.768;18.262;2022-08-21T02:11:44;20.30;99.90
59469;DHT22;45277;52.768;18.262;2022-08-21T02:13:17;20.20;99.90
59469;DHT22;45277;52.768;18.262;2022-08-21T02:14:49;20.20;99.90
59469;DHT22;45277;52.768;18.262;2022-08-21T02:16:20;20.10;99.90
59469;DHT22;45277;52.768;18.262;2022-08-21T02:18:01;20.20;99.90
59469;DHT22;45277;52.768;18.262;2022-08-21T02:19:34;20.10;99.90
59469;DHT22;45277;52.768;18.262;2022-08-21T02:21:05;20.20;99.90
59469;DHT22;45277;52.768;18.262;2022-08-21T02:22:38;20.10;99.90
59469;DHT22;45277;52.768;18.262;2022-08-21T02:24:12;20.00;99.90
59469;DHT22;45277;52.768;18.262;2022-08-21T02:25:44;20.10;99.90
59469;DHT22;45277;52.768;18.262;2022-08-21T02:27:16;20.10;99.90
59469;DHT22;45277;52.768;18.262;2022-08-21T02:28:49;20.10;99.90
59469;DHT22;45277;52.768;18.262;2022-08-21T02:30:26;20.10;99.90
59469;DHT22;45277;52.768;18.262;2022-08-21T02:31:59;20.10;99.90
59469;DHT22;45277;52.768;18.262;2022-08-21T02:33:30;20.10;99.90
59469;DHT22;45277;52.768;18.262;2022-08-21T02:35:09;20.10;99.90
59469;DHT22;45277;52.768;18.262;2022-08-21T02:36:41;20.10;99.90
59469;DHT22;45277;52.768;18.262;2022-08-21T02:38:17;20.10;99.90
59469;DHT22;45277;52.768;18.262;2022-08-21T02:39:50;20.10;99.90
59469;DHT22;45277;52.768;18.262;2022-08-21T02:41:23;20.10;99.90
59469;DHT22;45277;52.768;18.262;2022-08-21T02:42:56;20.10;99.90
59469;DHT22;45277;52.768;18.262;2022-08-21T02:44:29;20.10;99.90
59469;DHT22;45277;52.768;18.262;2022-08-21T02:46:03;20.10;99.90
59469;DHT22;45277;52.768;18.262;2022-08-21T02:47:35;20.10;99.90
59469;DHT22;45277;52.768;18.262;2022-08-21T02:49:09;20.00;99.90
59469;DHT22;45277;52.768;18.262;2022-08-21T02:50:50;20.00;99.90
59469;DHT22;45277;52.768;18.262;2022-08-21T02:52:23;20.00;99.90
59469;DHT22;45277;52.768;18.262;2022-08-21T02:53:57;19.90;99.90
59469;DHT22;45277;52.768;18.262;2022-08-21T02:55:31;19.90;99.90
59469;DHT22;45277;52.768;18.262;2022-08-21T02:57:02;20.00;99.90
59469;DHT22;45277;52.768;18.262;2022-08-21T02:58:39;19.90;99.90
59469;DHT22;45277;52.768;18.262;2022-08-21T03:00:15;19.90;99.90
59469;DHT22;45277;52.768;18.262;2022-08-21T03:01:47;19.90;99.90
59469;DHT22;45277;52.768;18.262;2022-08-21T03:03:20;19.90;99.90
59469;DHT22;45277;52.768;18.262;2022-08-21T03:04:52;19.90;99.90
59469;DHT22;45277;52.768;18.262;2022-08-21T03:06:25;19.90;99.90
59469;DHT22;45277;52.768;18.262;2022-08-21T03:07:59;19.90;99.90
59469;DHT22;45277;52.768;18.262;2022-08-21T03:09:32;19.90;99.90
59469;DHT22;45277;52.768;18.262;2022-08-21T03:11:04;19.90;99.90
59469;DHT22;45277;52.768;18.262;2022-08-21T03:12:38;19.80;99.90
59469;DHT22;45277;52.768;18.262;2022-08-21T03:14:10;19.90;99.90
59469;DHT22;45277;52.768;18.262;2022-08-21T03:15:43;19.80;99.90
59469;DHT22;45277;52.768;18.262;2022-08-21T03:17:15;19.80;99.90
59469;DHT22;45277;52.768;18.262;2022-08-21T03:18:47;19.70;99.90
59469;DHT22;45277;52.768;18.262;2022-08-21T03:20:21;19.80;99.90
59469;DHT22;45277;52.768;18.262;2022-08-21T03:21:54;19.70;99.90
59469;DHT22;45277;52.768;18.262;2022-08-21T03:23:25;19.80;99.90
59469;DHT22;45277;52.768;18.262;2022-08-21T03:24:59;19.70;99.90
59469;DHT22;45277;52.768;18.262;2022-08-21T03:26:31;19.70;99.90
59469;DHT22;45277;52.768;18.262;2022-08-21T03:28:10;19.70;99.90
59469;DHT22;45277;52.768;18.262;2022-08-21T03:29:43;19.70;99.90
59469;DHT22;45277;52.768;18.262;2022-08-21T03:31:15;19.70;99.90
59469;DHT22;45277;52.768;18.262;2022-08-21T03:32:49;19.70;99.90
59469;DHT22;45277;52.768;18.262;2022-08-21T03:34:28;19.80;99.90
59469;DHT22;45277;52.768;18.262;2022-08-21T03:36:03;19.70;99.90
59469;DHT22;45277;52.768;18.262;2022-08-21T03:37:35;19.70;99.90
59469;DHT22;45277;52.768;18.262;2022-08-21T03:39:07;19.70;99.90
59469;DHT22;45277;52.768;18.262;2022-08-21T03:40:42;19.70;99.90
59469;DHT22;45277;52.768;18.262;2022-08-21T03:42:14;19.70;99.90
59469;DHT22;45277;52.768;18.262;2022-08-21T03:43:47;19.70;99.90
59469;DHT22;45277;52.768;18.262;2022-08-21T03:45:22;19.80;99.90
59469;DHT22;45277;52.768;18.262;2022-08-21T03:46:55;19.80;99.90
59469;DHT22;45277;52.768;18.262;2022-08-21T03:48:27;19.80;99.90
59469;DHT22;45277;52.768;18.262;2022-08-21T03:49:59;19.80;99.90
59469;DHT22;45277;52.768;18.262;2022-08-21T03:51:33;19.80;99.90
59469;DHT22;45277;52.768;18.262;2022-08-21T03:53:09;19.80;99.90
59469;DHT22;45277;52.768;18.262;2022-08-21T03:54:41;19.70;99.90
59469;DHT22;45277;52.768;18.262;2022-08-21T03:56:12;19.80;99.90
59469;DHT22;45277;52.768;18.262;2022-08-21T03:57:44;19.80;99.90
59469;DHT22;45277;52.768;18.262;2022-08-21T03:59:18;19.80;99.90
59469;DHT22;45277;52.768;18.262;2022-08-21T04:00:52;19.80;99.90
59469;DHT22;45277;52.768;18.262;2022-08-21T04:02:23;19.80;99.90
59469;DHT22;45277;52.768;18.262;2022-08-21T04:03:55;19.80;99.90
59469;DHT22;45277;52.768;18.262;2022-08-21T04:05:29;19.90;99.90
59469;DHT22;45277;52.768;18.262;2022-08-21T04:07:03;19.90;99.90
59469;DHT22;45277;52.768;18.262;2022-08-21T04:08:35;19.80;99.90
59469;DHT22;45277;52.768;18.262;2022-08-21T04:10:07;19.90;99.90
59469;DHT22;45277;52.768;18.262;2022-08-21T04:11:40;20.00;99.90
59469;DHT22;45277;52.768;18.262;2022-08-21T04:13:12;20.00;99.90
59469;DHT22;45277;52.768;18.262;2022-08-21T04:14:43;20.00;99.90
59469;DHT22;45277;52.768;18.262;2022-08-21T04:16:15;20.00;99.90
59469;DHT22;45277;52.768;18.262;2022-08-21T04:17:47;20.10;99.90
59469;DHT22;45277;52.768;18.262;2022-08-21T04:19:19;20.00;99.90
59469;DHT22;45277;52.768;18.262;2022-08-21T04:20:51;20.10;99.90
59469;DHT22;45277;52.768;18.262;2022-08-21T04:22:27;20.10;99.90
59469;DHT22;45277;52.768;18.262;2022-08-21T04:24:01;20.10;99.90
59469;DHT22;45277;52.768;18.262;2022-08-21T04:25:33;20.20;99.90
59469;DHT22;45277;52.768;18.262;2022-08-21T04:27:05;20.20;99.90
59469;DHT22;45277;52.768;18.262;2022-08-21T04:28:37;20.20;99.90
59469;DHT22;45277;52.768;18.262;2022-08-21T04:30:10;20.20;99.90
59469;DHT22;45277;52.768;18.262;2022-08-21T04:31:49;20.30;99.90
59469;DHT22;45277;52.768;18.262;2022-08-21T04:33:29;20.30;99.90
59469;DHT22;45277;52.768;18.262;2022-08-21T04:35:03;20.30;99.90
59469;DHT22;45277;52.768;18.262;2022-08-21T04:36:36;20.30;99.90
59469;DHT22;45277;52.768;18.262;2022-08-21T04:38:08;20.40;99.90
59469;DHT22;45277;52.768;18.262;2022-08-21T04:39:41;20.40;99.90
59469;DHT22;45277;52.768;18.262;2022-08-21T04:41:13;20.40;99.90
59469;DHT22;45277;52.768;18.262;2022-08-21T04:42:57;20.40;99.90
59469;DHT22;45277;52.768;18.262;2022-08-21T04:44:30;20.40;99.90
59469;DHT22;45277;52.768;18.262;2022-08-21T04:46:03;20.50;99.90
59469;DHT22;45277;52.768;18.262;2022-08-21T04:47:34;20.60;99.90
59469;DHT22;45277;52.768;18.262;2022-08-21T04:49:06;20.60;99.90
59469;DHT22;45277;52.768;18.262;2022-08-21T04:50:47;20.60;99.90
59469;DHT22;45277;52.768;18.262;2022-08-21T04:52:21;20.70;99.90
59469;DHT22;45277;52.768;18.262;2022-08-21T04:54:09;20.70;99.90
59469;DHT22;45277;52.768;18.262;2022-08-21T04:55:43;20.70;99.90
59469;DHT22;45277;52.768;18.262;2022-08-21T04:57:15;20.60;99.90
59469;DHT22;45277;52.768;18.262;2022-08-21T04:58:48;20.70;99.90
59469;DHT22;45277;52.768;18.262;2022-08-21T05:00:23;20.70;99.90
59469;DHT22;45277;52.768;18.262;2022-08-21T05:01:56;20.70;99.90
59469;DHT22;45277;52.768;18.262;2022-08-21T05:03:36;20.70;99.90
59469;DHT22;45277;52.768;18.262;2022-08-21T05:05:09;20.70;99.90
59469;DHT22;45277;52.768;18.262;2022-08-21T05:06:45;20.70;99.90
59469;DHT22;45277;52.768;18.262;2022-08-21T05:08:19;20.60;99.90
59469;DHT22;45277;52.768;18.262;2022-08-21T05:09:54;20.60;99.90
59469;DHT22;45277;52.768;18.262;2022-08-21T05:11:25;20.60;99.90
59469;DHT22;45277;52.768;18.262;2022-08-21T05:12:59;20.60;99.90
59469;DHT22;45277;52.768;18.262;2022-08-21T05:14:33;20.60;99.90
59469;DHT22;45277;52.768;18.262;2022-08-21T05:16:06;20.50;99.90
59469;DHT22;45277;52.768;18.262;2022-08-21T05:17:39;20.50;99.90
59469;DHT22;45277;52.768;18.262;2022-08-21T05:19:11;20.50;99.90
59469;DHT22;45277;52.768;18.262;2022-08-21T05:20:44;20.60;99.90
59469;DHT22;45277;52.768;18.262;2022-08-21T05:22:20;20.70;99.90
59469;DHT22;45277;52.768;18.262;2022-08-21T05:23:53;20.60;99.90
59469;DHT22;45277;52.768;18.262;2022-08-21T05:25:24;20.60;99.90
59469;DHT22;45277;52.768;18.262;2022-08-21T05:26:57;20.50;99.90
59469;DHT22;45277;52.768;18.262;2022-08-21T05:28:31;20.50;99.90
59469;DHT22;45277;52.768;18.262;2022-08-21T05:30:06;20.50;99.90
59469;DHT22;45277;52.768;18.262;2022-08-21T05:31:39;20.40;99.90
59469;DHT22;45277;52.768;18.262;2022-08-21T05:33:12;20.40;99.90
59469;DHT22;45277;52.768;18.262;2022-08-21T05:34:43;20.30;99.90
59469;DHT22;45277;52.768;18.262;2022-08-21T05:36:17;20.30;99.90
59469;DHT22;45277;52.768;18.262;2022-08-21T05:37:48;20.30;99.90
59469;DHT22;45277;52.768;18.262;2022-08-21T05:39:26;20.30;99.90
59469;DHT22;45277;52.768;18.262;2022-08-21T05:41:00;20.30;99.90
59469;DHT22;45277;52.768;18.262;2022-08-21T05:42:31;20.30;99.90
59469;DHT22;45277;52.768;18.262;2022-08-21T05:44:03;20.30;99.90
59469;DHT22;45277;52.768;18.262;2022-08-21T05:45:35;20.40;99.90
59469;DHT22;45277;52.768;18.262;2022-08-21T05:47:09;20.40;99.90
59469;DHT22;45277;52.768;18.262;2022-08-21T05:48:41;20.30;99.90
59469;DHT22;45277;52.768;18.262;2022-08-21T05:50:13;20.30;99.90
59469;DHT22;45277;52.768;18.262;2022-08-21T05:51:47;20.30;99.90
59469;DHT22;45277;52.768;18.262;2022-08-21T05:53:26;20.30;99.90
59469;DHT22;45277;52.768;18.262;2022-08-21T05:54:59;20.30;99.90
59469;DHT22;45277;52.768;18.262;2022-08-21T05:56:30;20.30;99.90
59469;DHT22;45277;52.768;18.262;2022-08-21T05:58:03;20.30;99.90
59469;DHT22;45277;52.768;18.262;2022-08-21T05:59:41;20.30;99.90
59469;DHT22;45277;52.768;18.262;2022-08-21T06:01:12;20.30;99.90
59469;DHT22;45277;52.768;18.262;2022-08-21T06:02:45;20.30;99.90
59469;DHT22;45277;52.768;18.262;2022-08-21T06:04:20;20.30;99.90
59469;DHT22;45277;52.768;18.262;2022-08-21T06:05:52;20.30;99.90
59469;DHT22;45277;52.768;18.262;2022-08-21T06:07:30;20.30;99.90
59469;DHT22;45277;52.768;18.262;2022-08-21T06:09:03;20.40;99.90
59469;DHT22;45277;52.768;18.262;2022-08-21T06:10:37;20.40;99.90
59469;DHT22;45277;52.768;18.262;2022-08-21T06:12:11;20.40;99.90
59469;DHT22;45277;52.768;18.262;2022-08-21T06:13:45;20.40;99.90
59469;DHT22;45277;52.768;18.262;2022-08-21T06:15:19;20.40;99.90
59469;DHT22;45277;52.768;18.262;2022-08-21T06:16:51;20.50;99.90
59469;DHT22;45277;52.768;18.262;2022-08-21T06:18:22;20.50;99.90
59469;DHT22;45277;52.768;18.262;2022-08-21T06:19:54;20.50;99.90
59469;DHT22;45277;52.768;18.262;2022-08-21T06:21:26;20.50;99.90
59469;DHT22;45277;52.768;18.262;2022-08-21T06:23:00;20.50;99.90
59469;DHT22;45277;52.768;18.262;2022-08-21T06:24:31;20.60;99.90
59469;DHT22;45277;52.768;18.262;2022-08-21T06:26:05;20.70;99.90
59469;DHT22;45277;52.768;18.262;2022-08-21T06:27:37;20.80;99.90
59469;DHT22;45277;52.768;18.262;2022-08-21T06:29:09;20.80;99.90
59469;DHT22;45277;52.768;18.262;2022-08-21T06:30:43;21.00;99.90
59469;DHT22;45277;52.768;18.262;2022-08-21T06:32:16;21.00;99.90
59469;DHT22;45277;52.768;18.262;2022-08-21T06:33:56;21.00;99.90
59469;DHT22;45277;52.768;18.262;2022-08-21T06:35:35;21.10;99.90
59469;DHT22;45277;52.768;18.262;2022-08-21T06:37:12;21.20;99.90
59469;DHT22;45277;52.768;18.262;2022-08-21T06:38:49;21.20;99.90
59469;DHT22;45277;52.768;18.262;2022-08-21T06:40:21;21.30;99.90
59469;DHT22;45277;52.768;18.262;2022-08-21T06:41:53;21.40;99.90
59469;DHT22;45277;52.768;18.262;2022-08-21T06:43:26;21.40;99.90
59469;DHT22;45277;52.768;18.262;2022-08-21T06:44:57;21.40;99.90
59469;DHT22;45277;52.768;18.262;2022-08-21T06:46:31;21.40;99.90
59469;DHT22;45277;52.768;18.262;2022-08-21T06:48:04;21.50;99.90
59469;DHT22;45277;52.768;18.262;2022-08-21T06:49:36;21.50;99.90
59469;DHT22;45277;52.768;18.262;2022-08-21T06:51:08;21.50;99.90
59469;DHT22;45277;52.768;18.262;2022-08-21T06:52:41;21.50;99.90
59469;DHT22;45277;52.768;18.262;2022-08-21T06:54:13;21.50;99.90
59469;DHT22;45277;52.768;18.262;2022-08-21T06:55:45;21.50;99.90
59469;DHT22;45277;52.768;18.262;2022-08-21T06:57:16;21.50;99.90
59469;DHT22;45277;52.768;18.262;2022-08-21T06:58:52;21.40;99.90
59469;DHT22;45277;52.768;18.262;2022-08-21T07:00:24;21.40;99.90
59469;DHT22;45277;52.768;18.262;2022-08-21T07:01:58;21.40;99.90
59469;DHT22;45277;52.768;18.262;2022-08-21T07:03:34;21.30;99.90
59469;DHT22;45277;52.768;18.262;2022-08-21T07:05:09;21.30;99.90
59469;DHT22;45277;52.768;18.262;2022-08-21T07:06:41;21.30;99.90
59469;DHT22;45277;52.768;18.262;2022-08-21T07:08:12;21.20;99.90
59469;DHT22;45277;52.768;18.262;2022-08-21T07:09:51;21.20;99.90
59469;DHT22;45277;52.768;18.262;2022-08-21T07:11:24;21.20;99.90
59469;DHT22;45277;52.768;18.262;2022-08-21T07:12:58;21.20;99.90
59469;DHT22;45277;52.768;18.262;2022-08-21T07:14:29;21.20;99.90
59469;DHT22;45277;52.768;18.262;2022-08-21T07:16:01;21.20;99.90
59469;DHT22;45277;52.768;18.262;2022-08-21T07:17:38;21.20;99.90
59469;DHT22;45277;52.768;18.262;2022-08-21T07:19:11;21.20;99.90
59469;DHT22;45277;52.768;18.262;2022-08-21T07:20:45;21.10;99.90
59469;DHT22;45277;52.768;18.262;2022-08-21T07:22:25;21.10;99.90
59469;DHT22;45277;52.768;18.262;2022-08-21T07:23:59;21.10;99.90
59469;DHT22;45277;52.768;18.262;2022-08-21T07:25:32;21.00;99.90
59469;DHT22;45277;52.768;18.262;2022-08-21T07:27:03;20.90;99.90
59469;DHT22;45277;52.768;18.262;2022-08-21T07:28:35;20.90;99.90
59469;DHT22;45277;52.768;18.262;2022-08-21T07:30:07;20.80;99.90
59469;DHT22;45277;52.768;18.262;2022-08-21T07:31:40;20.80;99.90
59469;DHT22;45277;52.768;18.262;2022-08-21T07:33:12;20.80;99.90
59469;DHT22;45277;52.768;18.262;2022-08-21T07:35:00;20.70;99.90
59469;DHT22;45277;52.768;18.262;2022-08-21T07:36:34;20.80;99.90
59469;DHT22;45277;52.768;18.262;2022-08-21T07:38:14;20.80;99.90
59469;DHT22;45277;52.768;18.262;2022-08-21T07:39:46;20.80;99.90
59469;DHT22;45277;52.768;18.262;2022-08-21T07:41:23;20.80;99.90
59469;DHT22;45277;52.768;18.262;2022-08-21T07:42:57;20.80;99.90
59469;DHT22;45277;52.768;18.262;2022-08-21T07:44:32;20.80;99.90
59469;DHT22;45277;52.768;18.262;2022-08-21T07:46:05;20.80;99.90
59469;DHT22;45277;52.768;18.262;2022-08-21T07:47:39;20.80;99.90
59469;DHT22;45277;52.768;18.262;2022-08-21T07:49:13;20.80;99.90
59469;DHT22;45277;52.768;18.262;2022-08-21T07:50:47;20.80;99.90
59469;DHT22;45277;52.768;18.262;2022-08-21T07:52:18;20.90;99.90
59469;DHT22;45277;52.768;18.262;2022-08-21T07:53:59;21.00;99.90
59469;DHT22;45277;52.768;18.262;2022-08-21T07:55:44;21.10;99.90
59469;DHT22;45277;52.768;18.262;2022-08-21T07:57:22;21.10;99.90
59469;DHT22;45277;52.768;18.262;2022-08-21T07:59:02;21.10;99.90
59469;DHT22;45277;52.768;18.262;2022-08-21T08:00:36;21.10;99.90
59469;DHT22;45277;52.768;18.262;2022-08-21T08:02:26;21.10;99.90
59469;DHT22;45277;52.768;18.262;2022-08-21T08:04:00;21.20;99.90
59469;DHT22;45277;52.768;18.262;2022-08-21T08:05:38;21.20;99.90
59469;DHT22;45277;52.768;18.262;2022-08-21T08:07:19;21.20;99.90
59469;DHT22;45277;52.768;18.262;2022-08-21T08:08:51;21.20;99.90
59469;DHT22;45277;52.768;18.262;2022-08-21T08:10:39;21.20;99.90
59469;DHT22;45277;52.768;18.262;2022-08-21T08:12:12;21.20;99.90
59469;DHT22;45277;52.768;18.262;2022-08-21T08:13:47;21.20;99.90
59469;DHT22;45277;52.768;18.262;2022-08-21T08:15:27;21.20;99.90
59469;DHT22;45277;52.768;18.262;2022-08-21T08:17:00;21.20;99.90
59469;DHT22;45277;52.768;18.262;2022-08-21T08:18:37;21.10;99.90
59469;DHT22;45277;52.768;18.262;2022-08-21T08:20:16;21.20;99.90
59469;DHT22;45277;52.768;18.262;2022-08-21T08:21:49;21.10;99.90
59469;DHT22;45277;52.768;18.262;2022-08-21T08:23:25;21.20;99.90
59469;DHT22;45277;52.768;18.262;2022-08-21T08:25:16;21.10;99.90
59469;DHT22;45277;52.768;18.262;2022-08-21T08:26:54;21.20;99.90
59469;DHT22;45277;52.768;18.262;2022-08-21T08:28:35;21.20;99.90
59469;DHT22;45277;52.768;18.262;2022-08-21T08:30:08;21.20;99.90
59469;DHT22;45277;52.768;18.262;2022-08-21T08:31:40;21.10;99.90
59469;DHT22;45277;52.768;18.262;2022-08-21T08:33:12;21.10;99.90
59469;DHT22;45277;52.768;18.262;2022-08-21T08:34:45;21.00;99.90
59469;DHT22;45277;52.768;18.262;2022-08-21T08:36:19;21.00;99.90
59469;DHT22;45277;52.768;18.262;2022-08-21T08:37:51;21.10;99.90
59469;DHT22;45277;52.768;18.262;2022-08-21T08:39:31;21.10;99.90
59469;DHT22;45277;52.768;18.262;2022-08-21T08:41:14;21.00;99.90
59469;DHT22;45277;52.768;18.262;2022-08-21T08:42:53;21.10;99.90
59469;DHT22;45277;52.768;18.262;2022-08-21T08:44:41;21.00;99.90
59469;DHT22;45277;52.768;18.262;2022-08-21T08:46:40;21.00;99.90
59469;DHT22;45277;52.768;18.262;2022-08-21T08:50:09;21.00;99.90
59469;DHT22;45277;52.768;18.262;2022-08-21T08:52:35;21.00;99.90
59469;DHT22;45277;52.768;18.262;2022-08-21T08:54:12;20.90;99.90
59469;DHT22;45277;52.768;18.262;2022-08-21T08:55:51;20.90;99.90
59469;DHT22;45277;52.768;18.262;2022-08-21T08:57:27;20.90;99.90
59469;DHT22;45277;52.768;18.262;2022-08-21T08:59:20;21.00;99.90
59469;DHT22;45277;52.768;18.262;2022-08-21T09:01:05;21.00;99.90
59469;DHT22;45277;52.768;18.262;2022-08-21T09:02:42;21.00;99.90
59469;DHT22;45277;52.768;18.262;2022-08-21T09:04:25;21.00;99.90
59469;DHT22;45277;52.768;18.262;2022-08-21T09:06:32;21.00;99.90
59469;DHT22;45277;52.768;18.262;2022-08-21T09:11:58;21.00;99.90
59469;DHT22;45277;52.768;18.262;2022-08-21T09:13:48;21.00;99.90
59469;DHT22;45277;52.768;18.262;2022-08-21T09:17:18;20.90;99.90
59469;DHT22;45277;52.768;18.262;2022-08-21T09:22:08;20.90;99.90
59469;DHT22;45277;52.768;18.262;2022-08-21T09:26:13;20.90;99.90
59469;DHT22;45277;52.768;18.262;2022-08-21T09:27:46;20.90;99.90
59469;DHT22;45277;52.768;18.262;2022-08-21T09:29:28;20.90;99.90
59469;DHT22;45277;52.768;18.262;2022-08-21T09:33:07;21.00;99.90
59469;DHT22;45277;52.768;18.262;2022-08-21T09:34:42;21.00;99.90
59469;DHT22;45277;52.768;18.262;2022-08-21T09:36:24;21.00;99.90
59469;DHT22;45277;52.768;18.262;2022-08-21T09:38:07;21.00;99.90
59469;DHT22;45277;52.768;18.262;2022-08-21T09:39:49;21.10;99.90
59469;DHT22;45277;52.768;18.262;2022-08-21T09:41:34;21.10;99.90
59469;DHT22;45277;52.768;18.262;2022-08-21T09:43:23;21.10;99.90
59469;DHT22;45277;52.768;18.262;2022-08-21T09:45:16;21.10;99.90
59469;DHT22;45277;52.768;18.262;2022-08-21T09:47:09;21.10;99.90
59469;DHT22;45277;52.768;18.262;2022-08-21T09:49:02;21.20;99.90
59469;DHT22;45277;52.768;18.262;2022-08-21T09:50:36;21.20;99.90
59469;DHT22;45277;52.768;18.262;2022-08-21T09:52:22;21.30;99.90
59469;DHT22;45277;52.768;18.262;2022-08-21T09:54:12;21.30;99.90
59469;DHT22;45277;52.768;18.262;2022-08-21T09:56:00;21.30;99.90
59469;DHT22;45277;52.768;18.262;2022-08-21T09:57:53;21.30;99.90
59469;DHT22;45277;52.768;18.262;2022-08-21T09:59:32;21.30;99.90
59469;DHT22;45277;52.768;18.262;2022-08-21T10:01:05;21.30;99.90
59469;DHT22;45277;52.768;18.262;2022-08-21T10:02:46;21.40;99.90
59469;DHT22;45277;52.768;18.262;2022-08-21T10:06:39;21.30;99.90
59469;DHT22;45277;52.768;18.262;2022-08-21T10:08:19;21.30;99.90
59469;DHT22;45277;52.768;18.262;2022-08-21T10:10:04;21.30;99.90